Thunder radar more information blitzortung!


Löydät sääaseman tiedot myös:

European Weather Network

Finland Weather Exchange

Weather Underground

AWEKAS



Weather Underground säähistoriasivu

Päivittäin yhteenveto Syyskuu 2, 2017 Yksiköt:  Englantilaiset    Metriset   Molemmat
« Edellinen Päivä
Seuraava Päivä »
Päivittäin Viikoittain Kuukausittain Vuosittain Mukautettu
  Korkea: Matala: Keskiarvo:
Lämpötila: TemperatureC °F 3.7 °F 10.6 °F
Kastepiste: DewpointC °F 3.1 °F 8 °F
Kosteus: Humidity % 55 % 86 %
Tuulen nopeus: WindSpeedKMH mph 0.0 mph 0.1 mph
Tuulenpuuska: WindSpeedGustKMH mph - -
Tuuli:- - SW
Ilmanpaine: PressurehPa in 1014.1 in -
Sade: 0.3 in    
Historical Graphs
 
 
Taulukkotiedot Syyskuu 2, 2017
Aika Lämpötila Kastepiste Ilmanpaine Tuuli Tuulen nopeus Tuulenpuuska Kosteus Sademäärä (tunneittain)
TemperatureC °F DewpointC °F PressurehPa in Calm     Humidity % HourlyPrecipMM in
00:00 9.4 °F 8.7 °F 1014.1 in Calm     95 % 0.0 in
00:05 9.3 °F 8.6 °F 1014.1 in Calm     95 % 0.0 in
00:10 9.2 °F 8.4 °F 1014.1 in Calm     95 % 0.0 in
00:15 9.2 °F 8.6 °F 1014.4 in Calm     96 % 0.0 in
00:20 9.2 °F 8.6 °F 1014.1 in Calm     96 % 0.0 in
00:25 9.1 °F 8.3 °F 1014.4 in Calm     95 % 0.0 in
00:30 8.9 °F 8.2 °F 1014.1 in Calm     95 % 0.0 in
00:35 8.8 °F 8.1 °F 1014.4 in Calm     95 % 0.0 in
00:40 8.7 °F 7.9 °F 1014.4 in Calm     95 % 0.0 in
00:45 8.6 °F 7.8 °F 1014.4 in Calm     95 % 0.0 in
00:50 8.5 °F 7.7 °F 1014.4 in Calm     95 % 0.0 in
00:55 8.4 °F 7.6 °F 1014.4 in Calm     95 % 0.0 in
01:00 8.3 °F 7.7 °F 1014.8 in Calm     96 % 0.0 in
01:05 8.3 °F 7.7 °F 1014.8 in Calm     96 % 0.0 in
01:10 8.2 °F 7.6 °F 1014.8 in Calm     96 % 0.0 in
01:15 8.1 °F 7.5 °F 1014.8 in Calm     96 % 0.0 in
01:20 8.0 °F 7.2 °F 1014.8 in Calm     95 % 0.0 in
01:25 7.9 °F 7.1 °F 1014.8 in Calm     95 % 0.0 in
01:30 7.7 °F 6.9 °F 1014.8 in Calm     95 % 0.0 in
01:35 7.6 °F 6.8 °F 1014.8 in Calm     95 % 0.0 in
01:40 7.4 °F 6.7 °F 1014.8 in Calm     95 % 0.0 in
01:45 7.3 °F 6.6 °F 1015.1 in Calm     95 % 0.0 in
01:50 7.3 °F 6.7 °F 1015.1 in Calm     96 % 0.0 in
01:55 7.2 °F 6.6 °F 1015.1 in Calm     96 % 0.0 in
02:00 7.1 °F 6.4 °F 1015.1 in Calm     95 % 0.0 in
02:05 7.0 °F 6.4 °F 1015.1 in Calm     96 % 0.0 in
02:15 6.9 °F 6.3 °F 1015.1 in Calm     96 % 0.0 in
02:20 6.9 °F 6.3 °F 1015.5 in Calm     96 % 0.0 in
02:25 6.8 °F 6.2 °F 1015.1 in Calm     96 % 0.0 in
02:30 6.6 °F 5.9 °F 1015.5 in Calm     95 % 0.0 in
02:35 6.5 °F 5.9 °F 1015.5 in Calm     96 % 0.0 in
02:40 6.4 °F 5.8 °F 1015.5 in Calm     96 % 0.0 in
02:45 6.4 °F 5.8 °F 1015.5 in Calm     96 % 0.0 in
02:50 6.4 °F 5.8 °F 1015.5 in Calm     96 % 0.0 in
02:55 6.4 °F 5.8 °F 1015.5 in Calm     96 % 0.0 in
03:00 6.3 °F 5.7 °F 1015.5 in Calm     96 % 0.0 in
03:05 6.2 °F 5.6 °F 1015.8 in Calm     96 % 0.0 in
03:10 6.1 °F 5.4 °F 1015.8 in Calm     96 % 0.0 in
03:15 6.1 °F 5.5 °F 1015.8 in Calm     96 % 0.0 in
03:20 6.2 °F 5.7 °F 1015.8 in Calm     97 % 0.0 in
03:25 6.2 °F 5.6 °F 1015.8 in Calm     96 % 0.0 in
03:30 6.0 °F 5.4 °F 1015.8 in Calm     96 % 0.0 in
03:35 5.8 °F 5.2 °F 1015.8 in Calm     96 % 0.0 in
03:40 5.7 °F 5.1 °F 1015.8 in Calm     96 % 0.0 in
03:45 5.7 °F 5.1 °F 1015.8 in Calm     96 % 0.0 in
03:50 5.7 °F 5.1 °F 1016.1 in Calm     96 % 0.0 in
03:55 5.7 °F 5.1 °F 1015.8 in Calm     96 % 0.0 in
04:00 5.6 °F 5.0 °F 1016.1 in Calm     96 % 0.0 in
04:05 5.6 °F 5.2 °F 1015.8 in Calm     97 % 0.0 in
04:10 5.6 °F 5.0 °F 1015.8 in Calm     96 % 0.0 in
04:15 5.6 °F 4.9 °F 1015.8 in Calm     96 % 0.0 in
04:20 5.4 °F 4.8 °F 1015.8 in Calm     96 % 0.0 in
04:25 5.2 °F 4.6 °F 1015.8 in Calm     96 % 0.0 in
04:30 5.2 °F 4.6 °F 1015.8 in Calm     96 % 0.3 in
04:35 5.2 °F 4.6 °F 1015.8 in Calm     96 % 0.3 in
04:40 5.2 °F 4.6 °F 1015.8 in Calm     96 % 0.3 in
04:45 5.2 °F 4.6 °F 1015.8 in Calm     96 % 0.3 in
04:50 5.1 °F 4.5 °F 1015.8 in Calm     96 % 0.3 in
04:55 5.1 °F 4.4 °F 1016.1 in Calm     96 % 0.3 in
05:00 4.9 °F 4.3 °F 1016.1 in Calm     96 % 0.3 in
05:05 4.8 °F 4.2 °F 1016.1 in Calm     96 % 0.3 in
05:10 4.8 °F 4.2 °F 1016.1 in Calm     96 % 0.3 in
05:15 4.7 °F 4.1 °F 1016.1 in Calm     96 % 0.3 in
05:20 4.7 °F 4.1 °F 1016.1 in Calm     96 % 0.3 in
05:25 4.7 °F 4.3 °F 1016.1 in Calm     97 % 0.3 in
05:30 4.7 °F 4.1 °F 1016.5 in Calm     96 % 0.0 in
05:35 4.7 °F 4.1 °F 1016.5 in Calm     96 % 0.0 in
05:40 4.6 °F 4.1 °F 1016.5 in Calm     96 % 0.0 in
05:45 4.6 °F 4.0 °F 1016.5 in Calm     96 % 0.0 in
05:50 4.5 °F 3.9 °F 1016.5 in Calm     96 % 0.0 in
05:55 4.5 °F 3.9 °F 1016.5 in Calm     96 % 0.0 in
06:00 4.4 °F 4.0 °F 1016.5 in Calm     97 % 0.0 in
06:05 4.4 °F 4.0 °F 1016.8 in Calm     97 % 0.0 in
06:10 4.4 °F 3.8 °F 1016.8 in Calm     96 % 0.0 in
06:15 4.2 °F 3.7 °F 1016.8 in Calm     96 % 0.0 in
06:20 4.1 °F 3.6 °F 1016.8 in Calm     96 % 0.0 in
06:25 4.0 °F 3.4 °F 1016.8 in Calm     96 % 0.0 in
06:30 3.9 °F 3.4 °F 1016.8 in Calm     96 % 0.0 in
06:35 3.9 °F 3.3 °F 1017.2 in Calm     96 % 0.0 in
06:40 3.8 °F 3.3 °F 1017.2 in Calm     96 % 0.0 in
06:45 3.8 °F 3.2 °F 1017.2 in Calm     96 % 0.0 in
06:50 3.7 °F 3.1 °F 1017.2 in Calm     96 % 0.0 in
06:55 3.7 °F 3.2 °F 1017.2 in Calm     96 % 0.0 in
07:00 3.8 °F 3.4 °F 1017.2 in Calm     97 % 0.0 in
07:05 4.0 °F 3.6 °F 1017.5 in Calm     97 % 0.0 in
07:10 4.0 °F 3.6 °F 1017.5 in Calm     97 % 0.0 in
07:15 4.0 °F 3.6 °F 1017.5 in Calm     97 % 0.0 in
07:20 4.1 °F 3.6 °F 1017.5 in Calm     97 % 0.0 in
07:25 4.1 °F 3.6 °F 1017.5 in Calm     97 % 0.0 in
07:30 3.9 °F 3.5 °F 1017.5 in Calm     97 % 0.0 in
07:35 3.9 °F 3.4 °F 1017.5 in Calm     97 % 0.0 in
07:40 3.9 °F 3.5 °F 1017.5 in Calm     97 % 0.0 in
07:45 4.0 °F 3.6 °F 1017.5 in Calm     97 % 0.0 in
07:50 4.1 °F 3.6 °F 1017.5 in Calm     97 % 0.0 in
07:55 4.2 °F 3.7 °F 1017.5 in Calm     97 % 0.0 in
08:00 4.3 °F 3.8 °F 1017.5 in Calm     97 % 0.0 in
08:05 4.4 °F 3.9 °F 1017.5 in Calm     97 % 0.0 in
08:10 4.5 °F 4.1 °F 1017.5 in Calm     97 % 0.0 in
08:15 4.6 °F 4.2 °F 1017.5 in Calm     97 % 0.0 in
08:20 4.7 °F 4.2 °F 1017.5 in Calm     97 % 0.0 in
08:25 4.8 °F 4.3 °F 1017.5 in Calm     97 % 0.0 in
08:30 4.9 °F 4.7 °F 1017.8 in Calm     98 % 0.0 in
08:35 5.1 °F 4.8 °F 1017.8 in Calm     98 % 0.0 in
08:40 5.2 °F 4.7 °F 1017.8 in Calm     97 % 0.0 in
08:45 5.3 °F 5.0 °F 1017.8 in Calm     98 % 0.0 in
08:50 5.5 °F 5.2 °F 1017.8 in Calm     98 % 0.0 in
08:55 5.8 °F 5.5 °F 1017.8 in Calm     98 % 0.0 in
09:00 6.1 °F 5.8 °F 1017.8 in Calm     98 % 0.0 in
09:05 6.4 °F 6.1 °F 1018.2 in Calm     98 % 0.0 in
09:10 6.8 °F 6.5 °F 1018.2 in Calm     98 % 0.0 in
09:15 7.2 °F 6.9 °F 1018.2 in Calm     98 % 0.0 in
09:20 7.6 °F 7.3 °F 1017.8 in Calm     98 % 0.0 in
09:25 7.9 °F 7.6 °F 1017.8 in Calm     98 % 0.0 in
09:30 8.2 °F 7.9 °F 1017.8 in Calm     98 % 0.0 in
09:40 8.9 °F 8.6 °F 1018.2 in Calm   3.2 mph 98 % 0.0 in
09:45 9.2 °F 8.9 °F 1018.2 in Calm     98 % 0.0 in
09:50 9.4 °F 9.2 °F 1018.2 in Calm     98 % 0.0 in
09:55 9.7 °F 9.4 °F 1018.2 in Calm   1.6 mph 98 % 0.0 in
10:00 9.9 °F 9.6 °F 1018.2 in Calm   1.6 mph 98 % 0.0 in
10:05 10.1 °F 9.8 °F 1018.2 in Calm   3.2 mph 98 % 0.0 in
10:10 10.2 °F 9.9 °F 1018.2 in Calm   3.2 mph 98 % 0.0 in
10:15 10.4 °F 10.2 °F 1018.2 in Calm   3.2 mph 98 % 0.0 in
10:20 10.7 °F 10.4 °F 1018.2 in Calm   3.2 mph 98 % 0.0 in
10:25 11.1 °F 10.8 °F 1018.2 in Calm     98 % 0.0 in
10:30 11.4 °F 11.2 °F 1017.8 in Calm   1.6 mph 98 % 0.0 in
10:35 11.7 °F 11.4 °F 1017.8 in Calm   1.6 mph 98 % 0.0 in
10:40 11.9 °F 11.6 °F 1018.2 in Calm     98 % 0.0 in
10:45 12.3 °F 11.9 °F 1018.2 in Calm     98 % 0.0 in
10:50 12.6 °F 12.2 °F 1018.2 in Calm     98 % 0.0 in
10:55 12.9 °F 12.6 °F 1018.2 in Calm     98 % 0.0 in
11:00 13.4 °F 12.8 °F 1018.2 in Calm   1.6 mph 96 % 0.0 in
11:05 13.7 °F 12.4 °F 1018.2 in Calm   1.6 mph 92 % 0.0 in
11:10 14.0 °F 12.6 °F 1018.2 in Calm   4.8 mph 91 % 0.0 in
11:15 14.2 °F 12.4 °F 1018.2 in Calm   4.8 mph 89 % 0.0 in
11:20 14.3 °F 12.4 °F 1018.2 in SW 1.6 mph 4.8 mph 88 % 0.0 in
11:25 14.5 °F 12.3 °F 1018.2 in Calm   4.8 mph 87 % 0.0 in
11:30 14.6 °F 11.9 °F 1018.2 in Calm   3.2 mph 84 % 0.0 in
11:35 14.8 °F 11.7 °F 1018.2 in Calm   4.8 mph 82 % 0.0 in
11:40 14.9 °F 11.3 °F 1018.2 in SW 3.2 mph 9.7 mph 79 % 0.0 in
11:45 15.0 °F 11.0 °F 1018.2 in SW 3.2 mph 9.7 mph 77 % 0.0 in
11:50 15.2 °F 10.9 °F 1018.2 in SSW 1.6 mph 9.7 mph 76 % 0.0 in
11:55 15.3 °F 11.1 °F 1018.2 in Calm   4.8 mph 76 % 0.0 in
12:00 15.3 °F 9.9 °F 1018.2 in SW 1.6 mph 8.0 mph 70 % 0.0 in
12:05 15.5 °F 10.4 °F 1018.2 in WSW 1.6 mph 8.0 mph 72 % 0.0 in
12:10 15.6 °F 10.1 °F 1018.2 in NW 3.2 mph 8.0 mph 70 % 0.0 in
12:15 15.6 °F 9.9 °F 1018.2 in Calm   6.4 mph 69 % 0.0 in
12:20 15.6 °F 10.7 °F 1018.2 in Calm   4.8 mph 73 % 0.0 in
12:25 15.4 °F 10.6 °F 1018.2 in Calm     73 % 0.0 in
12:30 15.3 °F 9.8 °F 1018.2 in Calm     70 % 0.0 in
12:35 15.0 °F 10.6 °F 1018.2 in Calm     75 % 0.0 in
12:40 14.8 °F 10.4 °F 1018.2 in Calm     75 % 0.0 in
12:45 14.6 °F 10.4 °F 1018.2 in Calm     76 % 0.0 in
12:50 14.4 °F 10.4 °F 1018.2 in Calm     77 % 0.0 in
12:55 14.4 °F 10.2 °F 1018.2 in Calm     76 % 0.0 in
13:00 14.3 °F 10.2 °F 1018.2 in Calm     76 % 0.0 in
13:05 14.4 °F 10.4 °F 1018.2 in Calm     77 % 0.0 in
13:10 14.6 °F 10.6 °F 1018.2 in Calm     77 % 0.0 in
13:15 15.1 °F 10.7 °F 1018.2 in Calm   1.6 mph 75 % 0.0 in
13:20 15.6 °F 9.5 °F 1018.2 in Calm   4.8 mph 67 % 0.0 in
13:25 15.9 °F 9.1 °F 1018.2 in Calm   4.8 mph 64 % 0.0 in
13:30 16.2 °F 10.4 °F 1018.2 in Calm   1.6 mph 69 % 0.0 in
13:35 16.2 °F 11.2 °F 1018.2 in Calm   1.6 mph 72 % 0.0 in
13:40 16.2 °F 10.1 °F 1018.2 in Calm     67 % 0.0 in
13:45 16.0 °F 10.9 °F 1018.2 in Calm     72 % 0.0 in
13:50 16.0 °F 9.4 °F 1018.5 in Calm   3.2 mph 65 % 0.0 in
13:55 16.2 °F 8.9 °F 1018.5 in NW 1.6 mph 4.8 mph 62 % 0.0 in
14:00 16.3 °F 9.0 °F 1018.5 in WNW 1.6 mph 4.8 mph 62 % 0.0 in
14:05 16.6 °F 9.0 °F 1018.5 in Calm   4.8 mph 61 % 0.0 in
14:10 16.8 °F 10.4 °F 1018.5 in Calm   3.2 mph 66 % 0.0 in
14:15 16.9 °F 9.6 °F 1018.5 in Calm   6.4 mph 62 % 0.0 in
14:20 16.9 °F 9.3 °F 1018.5 in South 1.6 mph 6.4 mph 61 % 0.0 in
14:25 16.8 °F 9.2 °F 1018.5 in South 1.6 mph 6.4 mph 61 % 0.0 in
14:30 16.6 °F 9.3 °F 1018.5 in SSW 1.6 mph 8.0 mph 62 % 0.0 in
14:35 16.6 °F 9.5 °F 1018.5 in SSW 1.6 mph 8.0 mph 63 % 0.0 in
14:40 16.5 °F 9.2 °F 1018.5 in Calm   4.8 mph 62 % 0.0 in
14:45 16.5 °F 10.8 °F 1018.5 in Calm   4.8 mph 69 % 0.0 in
14:55 16.4 °F 9.3 °F 1018.5 in Calm   3.2 mph 63 % 0.0 in
15:00 16.6 °F 9.1 °F 1018.5 in SSW 1.6 mph 8.0 mph 61 % 0.0 in
15:05 16.8 °F 8.5 °F 1018.5 in SSW 1.6 mph 8.0 mph 58 % 0.0 in
15:10 17.1 °F 8.7 °F 1018.2 in Calm   6.4 mph 58 % 0.0 in
15:15 17.3 °F 8.7 °F 1018.2 in Calm   3.2 mph 57 % 0.0 in
15:20 17.7 °F 8.5 °F 1018.2 in SSW 3.2 mph 8.0 mph 55 % 0.0 in
15:25 17.7 °F 8.8 °F 1018.2 in West 3.2 mph 8.0 mph 56 % 0.0 in
15:30 17.4 °F 8.8 °F 1018.2 in Calm   8.0 mph 57 % 0.0 in
15:35 17.5 °F 10.1 °F 1018.2 in Calm   6.4 mph 62 % 0.0 in
15:40 17.4 °F 9.6 °F 1018.5 in Calm   1.6 mph 60 % 0.0 in
15:45 17.3 °F 9.7 °F 1018.2 in Calm     61 % 0.0 in
15:50 17.2 °F 9.1 °F 1018.5 in Calm   3.2 mph 59 % 0.0 in
15:55 17.0 °F 9.7 °F 1018.2 in Calm   3.2 mph 62 % 0.0 in
16:00 16.9 °F 9.8 °F 1018.2 in Calm     63 % 0.0 in
16:05 17.0 °F 10.6 °F 1018.2 in Calm     66 % 0.0 in
16:10 17.2 °F 9.1 °F 1018.2 in Calm   1.6 mph 59 % 0.0 in
16:15 17.4 °F 11.2 °F 1018.2 in Calm   1.6 mph 67 % 0.0 in
16:20 17.7 °F 9.1 °F 1018.2 in Calm   1.6 mph 57 % 0.0 in
16:25 17.8 °F 10.2 °F 1018.2 in Calm   1.6 mph 61 % 0.0 in
16:30 18.0 °F 10.4 °F 1018.2 in Calm   3.2 mph 61 % 0.0 in
16:35 18.0 °F 9.6 °F 1018.2 in Calm   3.2 mph 58 % 0.0 in
16:40 17.9 °F 9.1 °F 1018.2 in WNW 3.2 mph 8.0 mph 56 % 0.0 in
16:45 17.6 °F 9.7 °F 1018.2 in Calm   8.0 mph 60 % 0.0 in
16:50 17.3 °F 10.2 °F 1018.2 in Calm   6.4 mph 63 % 0.0 in
16:55 17.2 °F 10.1 °F 1018.5 in Calm     63 % 0.0 in
17:00 17.0 °F 10.6 °F 1018.2 in Calm     66 % 0.0 in
17:05 16.8 °F 10.2 °F 1018.2 in Calm     65 % 0.0 in
17:10 16.7 °F 10.1 °F 1018.2 in Calm     65 % 0.0 in
17:15 16.5 °F 10.3 °F 1018.2 in Calm     67 % 0.0 in
17:20 16.4 °F 10.0 °F 1018.2 in Calm     66 % 0.0 in
17:25 16.3 °F 10.3 °F 1018.2 in Calm     68 % 0.0 in
17:30 16.3 °F 11.4 °F 1018.2 in Calm     73 % 0.0 in
17:35 16.3 °F 11.3 °F 1018.2 in Calm     72 % 0.0 in
17:40 16.4 °F 11.1 °F 1018.2 in Calm     71 % 0.0 in
17:45 16.4 °F 11.6 °F 1018.2 in Calm     73 % 0.0 in
17:50 16.4 °F 11.6 °F 1018.2 in Calm     73 % 0.0 in
17:55 16.3 °F 11.7 °F 1018.2 in Calm     74 % 0.0 in
18:00 16.2 °F 11.8 °F 1018.2 in Calm     75 % 0.0 in
18:05 16.1 °F 11.8 °F 1018.5 in Calm     76 % 0.0 in
18:10 15.9 °F 12.1 °F 1018.5 in Calm     78 % 0.0 in
18:15 15.7 °F 11.5 °F 1018.5 in Calm     76 % 0.0 in
18:20 15.6 °F 11.7 °F 1018.5 in Calm     78 % 0.0 in
18:25 15.5 °F 11.5 °F 1018.5 in Calm     77 % 0.0 in
18:30 15.4 °F 11.4 °F 1018.5 in Calm     77 % 0.0 in
18:35 15.3 °F 11.5 °F 1018.5 in Calm     78 % 0.0 in
18:40 15.3 °F 11.3 °F 1018.5 in Calm     77 % 0.0 in
18:45 15.2 °F 11.6 °F 1018.5 in Calm     79 % 0.0 in
18:50 15.1 °F 11.2 °F 1018.5 in Calm     78 % 0.0 in
18:55 14.9 °F 11.5 °F 1018.5 in Calm   1.6 mph 80 % 0.0 in
19:00 14.9 °F 11.4 °F 1018.5 in Calm   1.6 mph 80 % 0.0 in
19:05 14.8 °F 11.3 °F 1018.5 in Calm     80 % 0.0 in
19:10 14.7 °F 11.3 °F 1018.5 in Calm     80 % 0.0 in
19:15 14.7 °F 11.5 °F 1018.5 in Calm     81 % 0.0 in
19:20 14.7 °F 11.4 °F 1018.8 in Calm     81 % 0.0 in
19:25 14.6 °F 11.2 °F 1018.8 in Calm     80 % 0.0 in
19:30 14.6 °F 11.3 °F 1018.8 in Calm   4.8 mph 81 % 0.0 in
19:40 14.3 °F 11.1 °F 1018.8 in Calm   4.8 mph 81 % 0.0 in
19:45 14.3 °F 11.2 °F 1018.8 in Calm     82 % 0.0 in
19:50 14.1 °F 11.3 °F 1018.8 in Calm     83 % 0.0 in
19:55 14.0 °F 11.2 °F 1018.8 in Calm   3.2 mph 83 % 0.0 in
20:00 13.8 °F 10.8 °F 1018.8 in Calm   3.2 mph 82 % 0.0 in
20:05 13.7 °F 10.7 °F 1018.8 in Calm     82 % 0.0 in
20:10 13.6 °F 10.6 °F 1018.8 in Calm     82 % 0.0 in
20:15 13.4 °F 10.4 °F 1018.8 in Calm     82 % 0.0 in
20:20 13.3 °F 10.4 °F 1018.8 in Calm     83 % 0.0 in
20:25 13.1 °F 10.3 °F 1018.8 in Calm     83 % 0.0 in
20:30 12.9 °F 10.3 °F 1018.8 in Calm     84 % 0.0 in
20:35 12.8 °F 10.2 °F 1018.8 in Calm     84 % 0.0 in
20:40 12.7 °F 10.1 °F 1018.8 in Calm     84 % 0.0 in
20:45 12.6 °F 9.9 °F 1018.8 in Calm     84 % 0.0 in
20:50 12.4 °F 9.8 °F 1018.8 in Calm     84 % 0.0 in
20:55 12.2 °F 9.8 °F 1018.8 in Calm     85 % 0.0 in
21:00 12.1 °F 9.6 °F 1019.2 in Calm     85 % 0.0 in
21:05 11.9 °F 9.6 °F 1019.2 in Calm     86 % 0.0 in
21:10 11.7 °F 9.6 °F 1019.2 in Calm     87 % 0.0 in
21:15 11.5 °F 9.4 °F 1019.2 in Calm     87 % 0.0 in
21:20 11.3 °F 9.4 °F 1019.2 in Calm     88 % 0.0 in
21:25 11.1 °F 9.2 °F 1019.2 in Calm     88 % 0.0 in
21:30 10.8 °F 9.1 °F 1019.2 in Calm     89 % 0.0 in
21:35 10.7 °F 8.9 °F 1019.2 in Calm     89 % 0.0 in
21:45 10.2 °F 8.6 °F 1019.2 in Calm     90 % 0.0 in
21:50 9.9 °F 8.3 °F 1019.2 in Calm     90 % 0.0 in
21:55 9.7 °F 8.3 °F 1019.2 in Calm     91 % 0.0 in
22:00 9.4 °F 8.1 °F 1019.5 in Calm     91 % 0.0 in
22:05 9.2 °F 7.8 °F 1019.2 in Calm     91 % 0.0 in
22:10 9.0 °F 7.6 °F 1019.5 in Calm     91 % 0.0 in
22:15 8.8 °F 7.6 °F 1019.5 in Calm     92 % 0.0 in
22:20 8.6 °F 7.4 °F 1019.5 in Calm     92 % 0.0 in
22:25 8.4 °F 7.4 °F 1019.5 in Calm     93 % 0.0 in
22:30 8.4 °F 7.3 °F 1019.5 in Calm     93 % 0.0 in
22:35 8.3 °F 7.2 °F 1019.5 in Calm     93 % 0.0 in
22:40 8.2 °F 7.2 °F 1019.5 in Calm     93 % 0.0 in
22:45 8.2 °F 7.3 °F 1019.5 in Calm     94 % 0.0 in
22:50 8.1 °F 7.2 °F 1019.9 in Calm     94 % 0.0 in
22:55 8.1 °F 7.2 °F 1019.9 in Calm     94 % 0.0 in
23:00 8.0 °F 7.1 °F 1019.9 in Calm     94 % 0.0 in
23:05 7.9 °F 7.0 °F 1019.9 in Calm     94 % 0.0 in
23:10 7.8 °F 6.9 °F 1019.9 in Calm     94 % 0.0 in
23:15 7.8 °F 6.9 °F 1019.9 in Calm     94 % 0.0 in
23:20 7.7 °F 6.8 °F 1019.9 in Calm     94 % 0.0 in
23:25 7.7 °F 6.8 °F 1019.9 in Calm     94 % 0.0 in
23:30 7.6 °F 6.7 °F 1019.9 in Calm     94 % 0.0 in
23:35 7.4 °F 6.6 °F 1019.9 in Calm     94 % 0.0 in
23:40 7.3 °F 6.4 °F 1019.9 in Calm     94 % 0.0 in
23:45 7.3 °F 6.4 °F 1019.9 in Calm     94 % 0.0 in
23:50 7.2 °F 6.3 °F 1019.9 in Calm     94 % 0.0 in
23:55 7.2 °F 6.4 °F 1019.9 in Calm     95 % 0.0 in
Esan sääasema
Terveisin Weather Underground - 3.75 mb

Alkuperäinen skripti  Jim McMurry - jmcmurry@mwt.net Sovitettu myös templatelle  Wim van der Kuil - Leuven-Template.eu

Laitteet joita käytämme:

Sääasema
Davis VP2

Sääasemaohjelma
Cumulus

Sääaseman tietokone
Asus EeePC

Palveluntarjoaja
Suncomet

Davis VP2

Cumulus

Asus EeePC

Suncomet